createdAt,value
2023-12-10T00:02:11.766Z,8.94
2023-12-10T00:04:58.692Z,8.98
2023-12-10T00:07:44.920Z,9.06
2023-12-10T00:10:31.568Z,8.87
2023-12-10T00:13:17.820Z,9.01
2023-12-10T00:16:04.713Z,9.02
2023-12-10T00:18:51.427Z,9.02
2023-12-10T00:21:40.009Z,9.01
2023-12-10T00:24:26.756Z,8.94
2023-12-10T00:27:13.352Z,8.94
2023-12-10T00:29:59.589Z,8.80
2023-12-10T00:32:46.128Z,8.77
2023-12-10T00:35:32.419Z,8.86
2023-12-10T00:38:21.556Z,8.78
2023-12-10T00:41:09.439Z,8.85
2023-12-10T00:43:55.932Z,8.80
2023-12-10T00:46:42.481Z,8.82
2023-12-10T00:49:29.265Z,8.80
2023-12-10T00:52:15.663Z,8.86
2023-12-10T00:55:05.281Z,8.77
2023-12-10T00:57:51.701Z,8.83
2023-12-10T01:00:38.102Z,8.76
2023-12-10T01:03:24.495Z,8.80
2023-12-10T01:06:11.537Z,8.86
2023-12-10T01:08:57.900Z,8.80
2023-12-10T01:11:44.522Z,8.76
2023-12-10T01:14:31.072Z,8.87
2023-12-10T01:17:18.965Z,8.84
2023-12-10T01:20:05.696Z,8.81
2023-12-10T01:22:52.556Z,8.69
2023-12-10T01:25:39.096Z,8.62
2023-12-10T01:28:25.472Z,8.76
2023-12-10T01:31:11.930Z,8.85
2023-12-10T01:33:58.615Z,8.94
2023-12-10T01:36:45.204Z,8.96
2023-12-10T01:39:32.883Z,8.97
2023-12-10T01:42:19.134Z,8.97
2023-12-10T01:45:06.854Z,8.99
2023-12-10T01:47:53.702Z,9.03
2023-12-10T01:50:40.289Z,8.98
2023-12-10T01:53:26.648Z,8.88
2023-12-10T01:56:13.453Z,8.73
2023-12-10T01:58:59.759Z,8.90
2023-12-10T02:01:49.356Z,8.87
2023-12-10T02:04:36.061Z,8.85
2023-12-10T02:07:22.848Z,8.76
2023-12-10T02:10:09.378Z,8.59
2023-12-10T02:12:57.040Z,8.40
2023-12-10T02:15:43.334Z,8.17
2023-12-10T02:18:30.190Z,7.99
2023-12-10T02:21:16.793Z,7.60
2023-12-10T02:24:07.101Z,7.49
2023-12-10T02:26:53.797Z,7.30
2023-12-10T02:29:40.365Z,6.94
2023-12-10T02:32:26.963Z,6.74
2023-12-10T02:35:13.781Z,6.35
2023-12-10T02:38:00.020Z,6.25
2023-12-10T02:40:46.468Z,6.04
2023-12-10T02:43:33.270Z,6.18
2023-12-10T02:46:24.911Z,6.20
2023-12-10T02:49:11.754Z,6.21
2023-12-10T02:51:58.414Z,6.26
2023-12-10T02:54:44.857Z,6.22
2023-12-10T02:57:31.209Z,6.44
2023-12-10T03:00:18.327Z,6.46
2023-12-10T03:03:04.908Z,6.29
2023-12-10T03:05:51.194Z,6.29
2023-12-10T03:08:37.764Z,6.25
2023-12-10T03:11:24.009Z,6.08
2023-12-10T03:14:14.357Z,6.08
2023-12-10T03:17:01.042Z,6.22
2023-12-10T03:19:47.482Z,6.19
2023-12-10T03:22:33.915Z,6.25
2023-12-10T03:25:22.046Z,6.37
2023-12-10T03:28:09.732Z,6.50
2023-12-10T03:30:58.858Z,6.66
2023-12-10T03:33:45.493Z,6.74
2023-12-10T03:36:31.961Z,6.69
2023-12-10T03:39:18.501Z,6.90
2023-12-10T03:42:05.167Z,7.17
2023-12-10T03:44:51.304Z,7.28
2023-12-10T03:47:38.159Z,7.37
2023-12-10T03:50:24.706Z,7.47
2023-12-10T03:53:11.232Z,7.50
2023-12-10T03:55:57.743Z,7.55
2023-12-10T03:58:44.016Z,7.45
2023-12-10T04:01:30.370Z,7.58
2023-12-10T04:04:17.163Z,7.55
2023-12-10T04:07:03.498Z,7.65
2023-12-10T04:09:49.868Z,7.65
2023-12-10T04:12:37.277Z,7.77
2023-12-10T04:15:24.040Z,7.80
2023-12-10T04:18:12.382Z,7.82
2023-12-10T04:20:59.122Z,7.85
2023-12-10T04:23:45.383Z,7.85
2023-12-10T04:26:31.584Z,7.88
2023-12-10T04:29:17.916Z,7.86
2023-12-10T04:32:04.608Z,7.93
2023-12-10T04:34:51.296Z,7.95
2023-12-10T04:37:37.935Z,7.97
2023-12-10T04:40:24.422Z,8.06
2023-12-10T04:43:10.665Z,8.07
2023-12-10T04:45:57.379Z,8.12
2023-12-10T04:48:44.375Z,8.04
2023-12-10T04:51:31.519Z,8.14
2023-12-10T04:54:18.256Z,8.06
2023-12-10T04:57:04.735Z,7.98
2023-12-10T04:59:50.877Z,7.93
2023-12-10T05:02:37.318Z,7.89
2023-12-10T05:05:23.699Z,7.87
2023-12-10T05:08:10.189Z,7.82
2023-12-10T05:10:56.847Z,7.83
2023-12-10T05:13:43.213Z,7.88
2023-12-10T05:16:29.379Z,7.88
2023-12-10T05:19:16.085Z,7.96
2023-12-10T05:22:02.792Z,8.02
2023-12-10T05:24:49.097Z,7.96
2023-12-10T05:27:35.688Z,7.93
2023-12-10T05:30:22.486Z,8.03
2023-12-10T05:33:09.260Z,7.95
2023-12-10T05:35:55.925Z,7.82
2023-12-10T05:38:42.538Z,7.82
2023-12-10T05:41:29.959Z,7.75
2023-12-10T05:44:16.536Z,7.77
2023-12-10T05:47:03.831Z,7.75
2023-12-10T05:49:50.189Z,7.84
2023-12-10T05:52:36.519Z,7.82
2023-12-10T05:55:22.705Z,7.90
2023-12-10T05:58:08.969Z,7.85
2023-12-10T06:00:55.625Z,7.87
2023-12-10T06:03:42.454Z,7.94
2023-12-10T06:06:29.128Z,7.16
2023-12-10T06:09:15.853Z,8.04
2023-12-10T06:12:02.385Z,8.08
2023-12-10T06:14:48.818Z,8.11
2023-12-10T06:17:35.120Z,8.03
2023-12-10T06:20:21.562Z,8.06
2023-12-10T06:23:08.190Z,8.10
2023-12-10T06:25:54.774Z,8.17
2023-12-10T06:28:41.109Z,8.10
2023-12-10T06:31:27.829Z,7.98
2023-12-10T06:34:14.572Z,7.89
2023-12-10T06:37:01.759Z,7.89
2023-12-10T06:39:48.164Z,7.92
2023-12-10T06:42:35.881Z,7.99
2023-12-10T06:45:22.253Z,7.89
2023-12-10T06:48:09.152Z,7.89
2023-12-10T06:50:55.851Z,7.80
2023-12-10T06:53:42.636Z,7.76
2023-12-10T06:56:28.880Z,7.78
2023-12-10T06:59:15.343Z,7.76
2023-12-10T07:02:01.951Z,7.71
2023-12-10T07:04:48.512Z,7.73
2023-12-10T07:07:36.327Z,7.74
2023-12-10T07:10:23.515Z,7.81
2023-12-10T07:13:11.644Z,7.92
2023-12-10T07:15:58.577Z,7.89
2023-12-10T07:18:45.210Z,8.03
2023-12-10T07:21:32.004Z,8.09
2023-12-10T07:24:18.689Z,8.03
2023-12-10T07:27:05.625Z,8.05
2023-12-10T07:29:51.985Z,8.06
2023-12-10T07:32:38.513Z,8.06
2023-12-10T07:35:25.292Z,8.10
2023-12-10T07:38:13.786Z,8.09
2023-12-10T07:41:01.277Z,7.87
2023-12-10T07:43:47.899Z,8.02
2023-12-10T07:46:34.266Z,7.96
2023-12-10T07:49:23.334Z,7.58
2023-12-10T07:52:09.886Z,8.08
2023-12-10T07:54:57.374Z,8.13
2023-12-10T07:57:45.883Z,8.13
2023-12-10T08:00:32.899Z,8.15
2023-12-10T08:03:22.775Z,8.10
2023-12-10T08:06:09.484Z,8.12
2023-12-10T08:08:56.311Z,8.12
2023-12-10T08:11:43.121Z,7.98
2023-12-10T08:14:30.142Z,7.99
2023-12-10T08:17:17.506Z,8.04
2023-12-10T08:20:04.721Z,8.03
2023-12-10T08:22:51.517Z,8.05
2023-12-10T08:25:38.240Z,7.91
2023-12-10T08:28:25.106Z,7.93
2023-12-10T08:31:11.807Z,8.07
2023-12-10T08:34:00.445Z,8.14
2023-12-10T08:36:46.886Z,8.18
2023-12-10T08:39:33.598Z,8.27
2023-12-10T08:42:20.435Z,8.41
2023-12-10T08:45:07.360Z,8.48
2023-12-10T08:47:54.325Z,8.27
2023-12-10T08:50:41.049Z,8.12
2023-12-10T08:53:27.373Z,8.00
2023-12-10T08:56:13.919Z,7.92
2023-12-10T08:59:00.556Z,7.96
2023-12-10T09:01:46.821Z,7.89
2023-12-10T09:04:33.814Z,7.83
2023-12-10T09:07:20.411Z,7.88
2023-12-10T09:10:12.095Z,7.98
2023-12-10T09:12:59.908Z,7.99
2023-12-10T09:15:46.747Z,8.37
2023-12-10T09:18:33.855Z,8.50
2023-12-10T09:21:20.363Z,8.66
2023-12-10T09:24:07.634Z,8.68
2023-12-10T09:26:54.555Z,8.91
2023-12-10T09:29:42.445Z,8.87
2023-12-10T09:32:29.556Z,8.88
2023-12-10T09:35:17.123Z,8.87
2023-12-10T09:38:06.451Z,8.79
2023-12-10T09:40:52.980Z,8.86
2023-12-10T09:43:39.544Z,8.83
2023-12-10T09:46:28.035Z,8.93
2023-12-10T09:49:15.454Z,8.94
2023-12-10T09:52:02.323Z,9.03
2023-12-10T09:54:49.381Z,8.94
2023-12-10T09:57:35.907Z,8.83
2023-12-10T10:00:22.919Z,8.98
2023-12-10T10:03:09.259Z,9.06
2023-12-10T10:05:56.067Z,9.25
2023-12-10T10:08:42.450Z,9.33
2023-12-10T10:11:28.854Z,9.39
2023-12-10T10:14:15.814Z,9.37
2023-12-10T10:17:02.184Z,9.38
2023-12-10T10:19:49.433Z,9.55
2023-12-10T10:22:35.872Z,9.55
2023-12-10T10:25:22.428Z,9.59
2023-12-10T10:28:11.768Z,9.73
2023-12-10T10:30:58.774Z,9.73
2023-12-10T10:33:45.581Z,9.92
2023-12-10T10:36:36.434Z,10.00
2023-12-10T10:39:23.785Z,9.89
2023-12-10T10:42:11.975Z,9.86
2023-12-10T10:44:58.351Z,9.83
2023-12-10T10:47:45.460Z,9.94
2023-12-10T10:50:35.292Z,9.97
2023-12-10T10:53:23.798Z,9.87
2023-12-10T10:56:12.166Z,9.99
2023-12-10T10:58:59.661Z,10.01
2023-12-10T11:01:46.395Z,9.98
2023-12-10T11:04:39.646Z,10.10
2023-12-10T11:07:26.747Z,10.10
2023-12-10T11:10:13.351Z,10.20
2023-12-10T11:13:00.929Z,10.31
2023-12-10T11:15:57.504Z,10.43
2023-12-10T11:18:51.773Z,10.28
2023-12-10T11:21:38.313Z,10.32
2023-12-10T11:24:25.080Z,10.33
2023-12-10T11:27:15.707Z,10.26
2023-12-10T11:30:04.852Z,10.30
2023-12-10T11:32:51.604Z,10.40
2023-12-10T11:35:44.010Z,10.25
2023-12-10T11:38:30.541Z,10.30
2023-12-10T11:41:22.845Z,10.41
2023-12-10T11:44:10.001Z,10.36
2023-12-10T11:46:58.759Z,10.36
2023-12-10T11:49:49.371Z,10.45
2023-12-10T11:52:36.070Z,10.47
2023-12-10T11:55:22.723Z,10.49
2023-12-10T11:58:09.633Z,10.18
2023-12-10T12:00:59.855Z,10.25
2023-12-10T12:03:46.927Z,10.26
2023-12-10T12:06:42.265Z,10.18
2023-12-10T12:09:29.120Z,10.14
2023-12-10T12:12:15.865Z,10.22
2023-12-10T12:15:03.409Z,10.11
2023-12-10T12:17:50.859Z,10.18
2023-12-10T12:20:38.275Z,10.24
2023-12-10T12:23:24.752Z,9.87
2023-12-10T12:26:11.109Z,10.16
2023-12-10T12:29:03.702Z,10.17
2023-12-10T12:32:05.371Z,10.07
2023-12-10T12:35:00.577Z,10.03
2023-12-10T12:37:53.197Z,10.04
2023-12-10T12:40:45.335Z,10.06
2023-12-10T12:43:34.226Z,10.20
2023-12-10T12:46:25.772Z,10.08
2023-12-10T12:49:14.631Z,10.15
2023-12-10T12:52:01.317Z,10.15
2023-12-10T12:54:51.092Z,10.10
2023-12-10T12:57:37.889Z,9.93
2023-12-10T13:00:24.660Z,9.88
2023-12-10T13:03:11.495Z,9.93
2023-12-10T13:05:58.153Z,9.90
2023-12-10T13:08:44.914Z,9.92
2023-12-10T13:11:35.935Z,9.71
2023-12-10T13:14:23.128Z,9.64
2023-12-10T13:17:09.594Z,9.56
2023-12-10T13:19:56.128Z,9.68
2023-12-10T13:22:43.399Z,9.72
2023-12-10T13:25:29.826Z,9.65
2023-12-10T13:28:16.652Z,9.49
2023-12-10T13:31:03.731Z,9.41
2023-12-10T13:33:50.338Z,9.37
2023-12-10T13:36:37.710Z,9.31
2023-12-10T13:39:24.518Z,9.32
2023-12-10T13:42:13.174Z,9.21
2023-12-10T13:44:59.565Z,9.12
2023-12-10T13:47:46.427Z,9.08
2023-12-10T13:50:32.794Z,9.11
2023-12-10T13:53:19.369Z,9.04
2023-12-10T13:56:05.852Z,9.04
2023-12-10T13:58:52.217Z,9.02
2023-12-10T14:01:38.792Z,8.87
2023-12-10T14:04:25.589Z,9.03
2023-12-10T14:07:12.885Z,8.96
2023-12-10T14:09:59.987Z,9.05
2023-12-10T14:12:47.347Z,9.07
2023-12-10T14:15:34.021Z,9.15
2023-12-10T14:18:20.841Z,9.15
2023-12-10T14:21:08.765Z,9.13
2023-12-10T14:23:56.028Z,9.04
2023-12-10T14:26:42.525Z,9.21
2023-12-10T14:29:29.103Z,9.13
2023-12-10T14:32:18.718Z,8.99
2023-12-10T14:35:06.223Z,8.93
2023-12-10T14:37:52.603Z,8.90
2023-12-10T14:40:39.645Z,8.90
2023-12-10T14:43:26.264Z,8.86
2023-12-10T14:46:12.849Z,8.76
2023-12-10T14:49:00.149Z,8.65
2023-12-10T14:51:48.178Z,8.64
2023-12-10T14:54:35.067Z,8.62
2023-12-10T14:57:25.497Z,8.62
2023-12-10T15:00:12.633Z,8.51
2023-12-10T15:02:58.995Z,8.51
2023-12-10T15:05:50.182Z,8.30
2023-12-10T15:08:36.801Z,8.12
2023-12-10T15:11:23.208Z,8.12
2023-12-10T15:14:10.024Z,8.03
2023-12-10T15:16:56.800Z,8.06
2023-12-10T15:19:44.199Z,7.97
2023-12-10T15:22:31.295Z,7.96
2023-12-10T15:25:18.062Z,7.86
2023-12-10T15:28:05.021Z,7.83
2023-12-10T15:30:51.522Z,7.71
2023-12-10T15:33:38.755Z,7.77
2023-12-10T15:36:26.371Z,7.83
2023-12-10T15:39:14.434Z,7.79
2023-12-10T15:42:01.017Z,7.68
2023-12-10T15:44:47.685Z,7.61
2023-12-10T15:47:34.320Z,7.64
2023-12-10T15:50:21.169Z,7.46
2023-12-10T15:53:07.744Z,7.46
2023-12-10T15:55:56.223Z,7.31
2023-12-10T15:58:43.004Z,6.83
2023-12-10T16:01:29.545Z,7.30
2023-12-10T16:04:16.533Z,7.39
2023-12-10T16:07:03.270Z,7.35
2023-12-10T16:09:50.036Z,7.31
2023-12-10T16:12:36.632Z,7.29
2023-12-10T16:15:25.420Z,7.17
2023-12-10T16:18:12.340Z,7.08
2023-12-10T16:20:59.983Z,7.13
2023-12-10T16:23:47.182Z,7.36
2023-12-10T16:26:35.418Z,7.29
2023-12-10T16:29:23.129Z,7.36
2023-12-10T16:32:09.646Z,7.43
2023-12-10T16:34:56.340Z,7.69
2023-12-10T16:37:43.473Z,7.77
2023-12-10T16:40:30.444Z,7.99
2023-12-10T16:43:16.899Z,8.01
2023-12-10T16:46:03.448Z,8.14
2023-12-10T16:48:50.276Z,8.20
2023-12-10T16:51:36.737Z,8.28
2023-12-10T16:54:23.720Z,8.28
2023-12-10T16:57:10.486Z,8.36
2023-12-10T16:59:56.727Z,8.41
2023-12-10T17:02:44.212Z,8.33
2023-12-10T17:05:31.629Z,8.34
2023-12-10T17:08:18.010Z,8.35
2023-12-10T17:11:05.394Z,8.57
2023-12-10T17:13:51.903Z,8.60
2023-12-10T17:16:38.551Z,8.66
2023-12-10T17:19:25.247Z,8.68
2023-12-10T17:22:12.069Z,8.70
2023-12-10T17:24:58.895Z,8.60
2023-12-10T17:27:45.531Z,8.69
2023-12-10T17:30:31.974Z,8.68
2023-12-10T17:33:18.662Z,8.59
2023-12-10T17:36:05.330Z,8.71
2023-12-10T17:38:51.699Z,8.76
2023-12-10T17:41:38.418Z,8.61
2023-12-10T17:44:24.810Z,8.62
2023-12-10T17:47:11.437Z,8.67
2023-12-10T17:49:57.890Z,8.57
2023-12-10T17:52:47.891Z,8.59
2023-12-10T17:55:34.819Z,8.59
2023-12-10T17:58:24.106Z,8.67
2023-12-10T18:01:10.940Z,8.61
2023-12-10T18:03:57.449Z,8.68
2023-12-10T18:06:44.420Z,8.77
2023-12-10T18:09:31.209Z,8.71
2023-12-10T18:12:17.881Z,8.68
2023-12-10T18:15:05.506Z,8.69
2023-12-10T18:17:52.294Z,8.59
2023-12-10T18:20:39.073Z,8.63
2023-12-10T18:23:27.533Z,8.58
2023-12-10T18:26:16.501Z,8.60
2023-12-10T18:29:05.236Z,8.50
2023-12-10T18:31:51.638Z,8.66
2023-12-10T18:34:40.145Z,8.59
2023-12-10T18:37:26.876Z,8.46
2023-12-10T18:40:15.105Z,8.55
2023-12-10T18:43:06.013Z,8.50
2023-12-10T18:45:52.956Z,8.59
2023-12-10T18:48:39.707Z,8.45
2023-12-10T18:51:26.508Z,8.45
2023-12-10T18:54:13.307Z,8.42
2023-12-10T18:57:00.237Z,8.46
2023-12-10T18:59:46.728Z,8.50
2023-12-10T19:02:33.157Z,8.34
2023-12-10T19:05:20.032Z,8.33
2023-12-10T19:08:06.961Z,8.24
2023-12-10T19:10:53.404Z,8.22
2023-12-10T19:13:40.263Z,8.18
2023-12-10T19:16:29.254Z,8.08
2023-12-10T19:19:18.410Z,8.03
2023-12-10T19:22:05.807Z,7.96
2023-12-10T19:24:52.551Z,8.15
2023-12-10T19:27:39.697Z,8.13
2023-12-10T19:30:27.710Z,8.15
2023-12-10T19:33:15.330Z,8.05
2023-12-10T19:36:01.852Z,7.98
2023-12-10T19:38:48.169Z,8.14
2023-12-10T19:41:34.554Z,7.93
2023-12-10T19:44:21.970Z,7.91
2023-12-10T19:47:08.374Z,7.94
2023-12-10T19:49:55.382Z,7.85
2023-12-10T19:52:42.189Z,7.99
2023-12-10T19:55:28.530Z,7.85
2023-12-10T19:58:15.035Z,8.08
2023-12-10T20:01:01.527Z,8.02
2023-12-10T20:03:51.036Z,7.98
2023-12-10T20:06:42.865Z,8.07
2023-12-10T20:09:33.976Z,8.11
2023-12-10T20:12:25.858Z,7.95
2023-12-10T20:15:12.590Z,8.06
2023-12-10T20:17:59.574Z,8.15
2023-12-10T20:20:50.226Z,8.13
2023-12-10T20:23:36.736Z,8.12
2023-12-10T20:26:28.205Z,8.08
2023-12-10T20:29:18.960Z,8.08
2023-12-10T20:32:05.487Z,8.01
2023-12-10T20:34:52.169Z,8.15
2023-12-10T20:37:38.779Z,8.20
2023-12-10T20:40:27.589Z,8.44
2023-12-10T20:43:15.107Z,8.32
2023-12-10T20:46:01.830Z,8.40
2023-12-10T20:48:48.634Z,8.52
2023-12-10T20:51:35.979Z,8.85
2023-12-10T20:54:23.390Z,9.14
2023-12-10T20:57:10.377Z,9.32
2023-12-10T21:00:01.688Z,9.48
2023-12-10T21:02:48.462Z,9.57
2023-12-10T21:05:35.572Z,9.69
2023-12-10T21:08:25.220Z,9.77
2023-12-10T21:11:11.858Z,9.91
2023-12-10T21:14:00.690Z,9.84
2023-12-10T21:16:47.273Z,10.06
2023-12-10T21:19:36.305Z,10.01
2023-12-10T21:22:22.737Z,9.87
2023-12-10T21:25:13.272Z,9.67
2023-12-10T21:28:09.699Z,9.53
2023-12-10T21:30:59.273Z,9.62
2023-12-10T21:33:45.638Z,9.62
2023-12-10T21:36:33.023Z,9.53
2023-12-10T21:39:19.747Z,9.61
2023-12-10T21:42:06.141Z,9.76
2023-12-10T21:44:53.036Z,9.62
2023-12-10T21:47:39.462Z,9.84
2023-12-10T21:50:26.313Z,9.76
2023-12-10T21:53:17.633Z,9.77
2023-12-10T21:56:04.355Z,9.90
2023-12-10T21:58:50.934Z,9.91
2023-12-10T22:01:38.514Z,9.81
2023-12-10T22:04:25.471Z,9.71
2023-12-10T22:07:14.471Z,9.84
2023-12-10T22:10:01.224Z,9.76
2023-12-10T22:12:47.733Z,9.80
2023-12-10T22:15:34.523Z,9.60
2023-12-10T22:18:21.216Z,9.63
2023-12-10T22:21:09.000Z,9.72
2023-12-10T22:23:57.766Z,9.63
2023-12-10T22:26:44.315Z,9.59
2023-12-10T22:29:34.144Z,9.60
2023-12-10T22:32:20.535Z,9.52
2023-12-10T22:35:09.737Z,9.55
2023-12-10T22:37:56.389Z,9.50
2023-12-10T22:40:43.232Z,9.47
2023-12-10T22:43:29.686Z,9.35
2023-12-10T22:46:16.102Z,9.43
2023-12-10T22:49:02.993Z,9.36
2023-12-10T22:51:52.065Z,9.27
2023-12-10T22:54:38.907Z,9.11
2023-12-10T22:57:33.114Z,8.91
2023-12-10T23:00:25.321Z,8.75
2023-12-10T23:03:17.167Z,8.74
2023-12-10T23:10:42.208Z,8.44
2023-12-10T23:13:42.044Z,8.34
2023-12-10T23:16:28.508Z,8.25
2023-12-10T23:19:21.869Z,8.27
2023-12-10T23:22:08.428Z,8.08
2023-12-10T23:24:55.397Z,8.03
2023-12-10T23:27:42.558Z,7.97
2023-12-10T23:30:38.480Z,8.02
2023-12-10T23:33:31.821Z,7.97
2023-12-10T23:36:18.517Z,8.04
2023-12-10T23:39:05.664Z,7.96
2023-12-10T23:41:52.140Z,8.52
2023-12-10T23:44:42.487Z,8.78
2023-12-10T23:47:29.252Z,8.98
2023-12-10T23:50:15.908Z,9.20
2023-12-10T23:53:02.606Z,9.27
2023-12-10T23:55:49.232Z,9.36
2023-12-10T23:58:38.973Z,9.37
